createdAt,value
2022-07-25T00:02:00.890Z,7.72
2022-07-25T00:04:29.766Z,7.38
2022-07-25T00:06:57.527Z,12.82
2022-07-25T00:09:25.214Z,7.82
2022-07-25T00:11:54.149Z,7.30
2022-07-25T00:14:21.787Z,7.15
2022-07-25T00:16:49.426Z,7.15
2022-07-25T00:19:17.172Z,8.10
2022-07-25T00:21:44.837Z,8.18
2022-07-25T00:24:12.653Z,8.20
2022-07-25T00:26:40.777Z,9.60
2022-07-25T00:29:09.925Z,8.02
2022-07-25T00:31:38.781Z,8.13
2022-07-25T00:34:06.849Z,8.43
2022-07-25T00:36:34.933Z,7.63
2022-07-25T00:39:02.545Z,8.30
2022-07-25T00:41:30.100Z,8.18
2022-07-25T00:43:57.710Z,8.48
2022-07-25T00:46:26.690Z,10.02
2022-07-25T00:48:54.937Z,7.90
2022-07-25T00:51:23.681Z,8.50
2022-07-25T00:53:51.313Z,7.85
2022-07-25T00:56:18.926Z,7.72
2022-07-25T00:58:46.689Z,11.23
2022-07-25T01:01:14.472Z,8.10
2022-07-25T01:03:43.509Z,7.95
2022-07-25T01:06:11.161Z,8.32
2022-07-25T01:08:39.851Z,8.38
2022-07-25T01:11:08.111Z,8.25
2022-07-25T01:13:35.880Z,8.27
2022-07-25T01:16:04.011Z,8.30
2022-07-25T01:18:31.990Z,8.52
2022-07-25T01:21:01.404Z,8.05
2022-07-25T01:23:29.053Z,8.93
2022-07-25T01:25:56.847Z,7.78
2022-07-25T01:28:24.501Z,8.40
2022-07-25T01:30:52.339Z,8.60
2022-07-25T01:33:22.070Z,9.23
2022-07-25T01:35:51.032Z,8.48
2022-07-25T01:38:20.165Z,10.45
2022-07-25T01:40:47.784Z,8.80
2022-07-25T01:43:15.412Z,8.38
2022-07-25T01:45:43.059Z,8.27
2022-07-25T01:48:10.973Z,10.32
2022-07-25T01:50:38.639Z,8.13
2022-07-25T01:53:06.599Z,10.65
2022-07-25T01:55:35.750Z,10.07
2022-07-25T01:58:04.577Z,8.13
2022-07-25T02:00:34.428Z,8.13
2022-07-25T02:03:19.805Z,8.73
2022-07-25T02:05:47.494Z,9.45
2022-07-25T02:08:15.121Z,8.75
2022-07-25T02:10:44.236Z,10.45
2022-07-25T02:13:11.942Z,10.05
2022-07-25T02:15:39.766Z,9.52
2022-07-25T02:18:07.480Z,8.57
2022-07-25T02:20:35.303Z,9.43
2022-07-25T02:23:03.792Z,8.75
2022-07-25T02:25:31.840Z,9.55
2022-07-25T02:28:01.401Z,10.95
2022-07-25T02:30:29.210Z,9.52
2022-07-25T02:32:56.922Z,9.02
2022-07-25T02:35:24.634Z,8.50
2022-07-25T02:37:52.349Z,8.05
2022-07-25T02:40:19.981Z,9.68
2022-07-25T02:42:47.670Z,8.57
2022-07-25T02:45:16.771Z,10.63
2022-07-25T02:47:44.481Z,12.15
2022-07-25T02:50:14.967Z,9.82
2022-07-25T02:52:42.862Z,8.88
2022-07-25T02:55:11.931Z,9.60
2022-07-25T02:57:39.661Z,11.13
2022-07-25T03:00:08.831Z,8.88
2022-07-25T03:02:37.961Z,8.77
2022-07-25T03:05:08.227Z,9.18
2022-07-25T03:07:36.081Z,9.48
2022-07-25T03:10:03.955Z,8.60
2022-07-25T03:12:39.584Z,10.88
2022-07-25T03:15:08.489Z,9.80
2022-07-25T03:17:36.227Z,8.93
2022-07-25T03:20:05.945Z,10.48
2022-07-25T03:22:33.855Z,9.20
2022-07-25T03:25:01.749Z,9.82
2022-07-25T03:27:29.605Z,8.68
2022-07-25T03:29:58.205Z,12.27
2022-07-25T03:32:25.793Z,10.45
2022-07-25T03:34:53.508Z,8.57
2022-07-25T03:37:23.806Z,9.25
2022-07-25T03:39:51.387Z,9.20
2022-07-25T03:42:22.396Z,10.02
2022-07-25T03:44:52.864Z,9.27
2022-07-25T03:47:21.009Z,8.88
2022-07-25T03:49:48.722Z,9.05
2022-07-25T03:52:16.365Z,9.05
2022-07-25T03:54:45.294Z,9.23
2022-07-25T03:57:12.930Z,8.55
2022-07-25T03:59:40.581Z,8.93
2022-07-25T04:02:08.258Z,8.77
2022-07-25T04:04:36.019Z,10.65
2022-07-25T04:07:03.840Z,9.85
2022-07-25T04:09:33.735Z,9.27
2022-07-25T04:12:04.231Z,11.77
2022-07-25T04:14:32.089Z,8.93
2022-07-25T04:16:59.864Z,8.70
2022-07-25T04:19:28.277Z,9.20
2022-07-25T04:21:56.864Z,11.60
2022-07-25T04:24:24.525Z,10.15
2022-07-25T04:26:52.165Z,10.43
2022-07-25T04:29:21.220Z,8.35
2022-07-25T04:31:49.000Z,9.18
2022-07-25T04:34:16.697Z,9.30
2022-07-25T04:36:44.325Z,10.00
2022-07-25T04:39:11.996Z,12.27
2022-07-25T04:41:39.634Z,10.68
2022-07-25T04:44:08.758Z,10.98
2022-07-25T04:46:38.170Z,9.07
2022-07-25T04:49:05.927Z,8.85
2022-07-25T04:51:35.747Z,10.32
2022-07-25T04:54:04.083Z,9.63
2022-07-25T04:56:31.971Z,10.13
2022-07-25T04:59:03.273Z,9.32
2022-07-25T05:01:34.565Z,8.43
2022-07-25T05:04:04.076Z,8.15
2022-07-25T05:06:32.021Z,9.57
2022-07-25T05:08:59.753Z,10.25
2022-07-25T05:11:27.353Z,9.38
2022-07-25T05:13:54.949Z,9.75
2022-07-25T05:16:22.607Z,9.00
2022-07-25T05:18:50.336Z,8.90
2022-07-25T05:21:19.329Z,9.10
2022-07-25T05:23:46.989Z,9.55
2022-07-25T05:26:14.640Z,8.93
2022-07-25T05:28:42.271Z,8.95
2022-07-25T05:31:09.985Z,10.82
2022-07-25T05:33:37.677Z,9.68
2022-07-25T05:36:05.965Z,9.73
2022-07-25T05:38:34.924Z,10.45
2022-07-25T05:41:02.608Z,9.15
2022-07-25T05:43:30.262Z,9.40
2022-07-25T05:46:01.561Z,10.57
2022-07-25T05:48:29.368Z,9.93
2022-07-25T05:50:59.057Z,10.02
2022-07-25T05:53:26.723Z,11.93
2022-07-25T05:55:55.739Z,9.23
2022-07-25T05:58:29.105Z,9.15
2022-07-25T06:00:57.927Z,9.30
2022-07-25T06:03:25.759Z,8.63
2022-07-25T06:05:53.559Z,10.35
2022-07-25T06:08:21.221Z,9.25
2022-07-25T06:10:50.290Z,8.20
2022-07-25T06:13:20.225Z,9.40
2022-07-25T06:15:48.609Z,11.10
2022-07-25T06:18:16.354Z,9.18
2022-07-25T06:20:44.064Z,9.57
2022-07-25T06:23:11.847Z,8.60
2022-07-25T06:25:39.517Z,8.63
2022-07-25T06:28:07.185Z,8.80
2022-07-25T06:30:39.664Z,8.70
2022-07-25T06:33:07.327Z,7.72
2022-07-25T06:35:35.022Z,11.00
2022-07-25T06:38:02.679Z,8.80
2022-07-25T06:40:30.297Z,7.40
2022-07-25T06:42:58.636Z,8.32
2022-07-25T06:45:27.321Z,11.52
2022-07-25T06:47:56.333Z,9.10
2022-07-25T06:50:23.981Z,7.85
2022-07-25T06:52:51.632Z,7.18
2022-07-25T06:55:19.714Z,8.30
2022-07-25T06:57:47.873Z,7.93
2022-07-25T07:00:16.167Z,8.77
2022-07-25T07:02:52.187Z,8.40
2022-07-25T07:05:21.946Z,8.68
2022-07-25T07:07:49.669Z,8.27
2022-07-25T07:10:17.966Z,7.32
2022-07-25T07:12:45.890Z,7.20
2022-07-25T07:15:14.095Z,7.85
2022-07-25T07:17:41.801Z,7.75
2022-07-25T07:20:10.684Z,7.55
2022-07-25T07:22:46.351Z,7.30
2022-07-25T07:25:15.863Z,8.88
2022-07-25T07:27:43.983Z,7.32
2022-07-25T07:30:14.666Z,7.93
2022-07-25T07:32:43.361Z,7.57
2022-07-25T07:35:12.145Z,7.43
2022-07-25T07:37:43.447Z,7.35
2022-07-25T07:40:16.797Z,7.57
2022-07-25T07:42:47.246Z,7.45
2022-07-25T07:45:16.759Z,7.63
2022-07-25T07:47:46.756Z,9.55
2022-07-25T07:50:14.718Z,6.95
2022-07-25T07:52:42.447Z,7.68
2022-07-25T07:55:29.775Z,7.43
2022-07-25T07:57:59.480Z,7.38
2022-07-25T08:00:30.291Z,8.65
2022-07-25T08:02:59.892Z,8.52
2022-07-25T08:05:29.570Z,7.30
2022-07-25T08:07:57.826Z,7.10
2022-07-25T08:10:28.859Z,6.70
2022-07-25T08:12:56.904Z,9.88
2022-07-25T08:15:24.530Z,6.70
2022-07-25T08:17:53.179Z,6.78
2022-07-25T08:20:37.360Z,7.40
2022-07-25T08:23:06.433Z,7.80
2022-07-25T08:25:36.106Z,6.85
2022-07-25T08:28:06.211Z,7.18
2022-07-25T08:30:34.802Z,7.55
2022-07-25T08:33:04.469Z,7.60
2022-07-25T08:35:33.257Z,7.15
2022-07-25T08:38:01.789Z,10.35
2022-07-25T08:40:31.556Z,7.55
2022-07-25T08:43:01.230Z,8.40
2022-07-25T08:45:29.827Z,6.93
2022-07-25T08:47:57.843Z,7.78
2022-07-25T08:50:28.122Z,10.68
2022-07-25T08:53:10.334Z,7.75
2022-07-25T08:55:45.617Z,9.90
2022-07-25T08:58:16.452Z,7.05
2022-07-25T09:00:44.906Z,6.90
2022-07-25T09:03:13.146Z,6.93
2022-07-25T09:05:41.150Z,6.70
2022-07-25T09:08:10.996Z,8.57
2022-07-25T09:10:40.656Z,7.43
2022-07-25T09:13:13.970Z,8.23
2022-07-25T09:15:46.402Z,7.57
2022-07-25T09:18:16.925Z,6.63
2022-07-25T09:20:46.856Z,8.18
2022-07-25T09:23:16.066Z,7.75
2022-07-25T09:25:43.704Z,9.40
2022-07-25T09:28:16.074Z,6.78
2022-07-25T09:30:55.970Z,10.20
2022-07-25T09:33:24.909Z,7.35
2022-07-25T09:35:54.025Z,8.73
2022-07-25T09:38:24.177Z,7.05
2022-07-25T09:40:56.383Z,7.88
2022-07-25T09:43:24.631Z,7.17
2022-07-25T09:45:53.188Z,8.95
2022-07-25T09:48:22.197Z,7.45
2022-07-25T09:50:51.346Z,6.90
2022-07-25T09:53:20.944Z,8.70
2022-07-25T09:55:48.537Z,7.80
2022-07-25T09:58:16.162Z,6.55
2022-07-25T10:00:44.117Z,8.25
2022-07-25T10:03:25.441Z,6.68
2022-07-25T10:06:08.853Z,6.30
2022-07-25T10:08:38.311Z,6.13
2022-07-25T10:11:06.829Z,6.72
2022-07-25T10:13:38.195Z,7.88
2022-07-25T10:16:15.977Z,6.60
2022-07-25T10:18:50.374Z,6.43
2022-07-25T10:21:28.197Z,5.80
2022-07-25T10:24:02.393Z,6.25
2022-07-25T10:26:30.659Z,6.18
2022-07-25T10:28:59.048Z,6.32
2022-07-25T10:31:35.611Z,5.68
2022-07-25T10:34:05.670Z,6.63
2022-07-25T10:36:45.127Z,6.18
2022-07-25T10:39:15.512Z,6.00
2022-07-25T10:41:53.794Z,6.43
2022-07-25T10:44:22.086Z,5.78
2022-07-25T10:46:50.216Z,6.13
2022-07-25T10:49:23.648Z,5.68
2022-07-25T10:52:00.350Z,6.05
2022-07-25T10:54:34.850Z,7.38
2022-07-25T10:57:02.876Z,6.55
2022-07-25T10:59:33.619Z,5.93
2022-07-25T11:02:01.636Z,6.22
2022-07-25T11:04:29.355Z,6.47
2022-07-25T11:06:58.973Z,6.55
2022-07-25T11:09:28.828Z,5.72
2022-07-25T11:11:58.635Z,6.00
2022-07-25T11:14:31.092Z,6.60
2022-07-25T11:16:59.222Z,6.50
2022-07-25T11:19:29.257Z,6.10
2022-07-25T11:21:59.743Z,5.85
2022-07-25T11:24:35.832Z,5.78
2022-07-25T11:27:08.376Z,5.72
2022-07-25T11:29:39.551Z,6.13
2022-07-25T11:32:10.136Z,6.30
2022-07-25T11:34:39.217Z,5.47
2022-07-25T11:37:11.821Z,6.03
2022-07-25T11:39:42.159Z,5.57
2022-07-25T11:42:11.241Z,5.93
2022-07-25T11:44:47.454Z,5.68
2022-07-25T11:47:25.449Z,5.70
2022-07-25T11:49:54.725Z,6.50
2022-07-25T11:52:26.123Z,6.45
2022-07-25T11:54:54.748Z,6.80
2022-07-25T11:57:24.018Z,5.57
2022-07-25T11:59:51.726Z,5.63
2022-07-25T12:02:24.093Z,6.82
2022-07-25T12:04:58.292Z,6.47
2022-07-25T12:10:06.412Z,5.97
2022-07-25T12:12:43.493Z,6.05
2022-07-25T12:15:12.336Z,6.15
2022-07-25T12:17:41.449Z,5.90
2022-07-25T12:20:15.406Z,5.55
2022-07-25T12:22:45.007Z,5.85
2022-07-25T12:25:12.949Z,5.30
2022-07-25T12:27:41.285Z,5.22
2022-07-25T12:30:10.332Z,5.57
2022-07-25T12:32:38.534Z,5.38
2022-07-25T12:35:07.811Z,5.85
2022-07-25T12:37:35.605Z,6.90
2022-07-25T12:40:05.301Z,9.10
2022-07-25T12:42:32.950Z,5.80
2022-07-25T12:45:00.527Z,5.63
2022-07-25T12:47:29.385Z,5.50
2022-07-25T12:49:57.200Z,5.50
2022-07-25T12:52:24.903Z,7.15
2022-07-25T12:54:52.610Z,6.65
2022-07-25T12:57:21.627Z,6.72
2022-07-25T12:59:49.485Z,5.38
2022-07-25T13:02:17.130Z,5.75
2022-07-25T13:04:45.188Z,5.20
2022-07-25T13:07:14.063Z,6.25
2022-07-25T13:09:41.844Z,5.28
2022-07-25T13:12:13.487Z,8.13
2022-07-25T13:14:45.136Z,5.40
2022-07-25T13:17:12.945Z,6.30
2022-07-25T13:19:40.583Z,6.47
2022-07-25T13:22:08.253Z,7.07
2022-07-25T13:24:35.925Z,5.63
2022-07-25T13:27:04.223Z,6.72
2022-07-25T13:29:32.147Z,5.85
2022-07-25T13:32:01.469Z,7.07
2022-07-25T13:34:30.708Z,5.93
2022-07-25T13:36:58.352Z,5.85
2022-07-25T13:39:27.133Z,5.63
2022-07-25T13:41:54.972Z,5.68
2022-07-25T13:44:22.575Z,5.82
2022-07-25T13:46:50.403Z,5.88
2022-07-25T13:49:19.864Z,5.80
2022-07-25T13:51:47.602Z,5.88
2022-07-25T13:54:15.271Z,6.22
2022-07-25T13:56:43.174Z,7.78
2022-07-25T13:59:15.986Z,7.15
2022-07-25T14:01:47.373Z,6.50
2022-07-25T14:04:15.089Z,5.90
2022-07-25T14:06:44.331Z,7.07
2022-07-25T14:09:12.091Z,5.93
2022-07-25T14:11:39.824Z,6.07
2022-07-25T14:14:07.560Z,9.43
2022-07-25T14:16:35.263Z,6.05
2022-07-25T14:19:03.208Z,7.32
2022-07-25T14:21:31.120Z,7.53
2022-07-25T14:24:01.467Z,6.32
2022-07-25T14:26:30.940Z,5.97
2022-07-25T14:28:58.627Z,7.22
2022-07-25T14:31:27.037Z,6.07
2022-07-25T14:33:54.879Z,5.97
2022-07-25T14:36:22.610Z,6.60
2022-07-25T14:38:50.202Z,7.30
2022-07-25T14:41:19.194Z,6.03
2022-07-25T14:43:46.912Z,6.63
2022-07-25T14:46:15.506Z,5.75
2022-07-25T14:48:43.362Z,6.50
2022-07-25T14:51:11.055Z,6.10
2022-07-25T14:53:38.676Z,8.52
2022-07-25T14:56:07.275Z,5.88
2022-07-25T14:58:38.084Z,6.47
2022-07-25T15:01:06.367Z,6.43
2022-07-25T15:03:34.127Z,5.35
2022-07-25T15:06:01.975Z,8.68
2022-07-25T15:08:29.817Z,10.02
2022-07-25T15:10:57.462Z,5.95
2022-07-25T15:13:32.658Z,8.30
2022-07-25T15:16:03.600Z,6.63
2022-07-25T15:18:31.973Z,6.22
2022-07-25T15:20:59.678Z,6.75
2022-07-25T15:23:30.338Z,7.55
2022-07-25T15:26:01.798Z,7.35
2022-07-25T15:28:30.444Z,6.20
2022-07-25T15:30:58.148Z,6.93
2022-07-25T15:33:27.263Z,5.97
2022-07-25T15:35:55.800Z,6.38
2022-07-25T15:38:23.806Z,9.88
2022-07-25T15:40:51.683Z,7.43
2022-07-25T15:43:19.389Z,8.32
2022-07-25T15:45:47.414Z,7.47
2022-07-25T15:48:17.084Z,6.90
2022-07-25T15:50:48.051Z,7.25
2022-07-25T15:53:17.044Z,7.40
2022-07-25T15:55:44.864Z,7.68
2022-07-25T15:58:12.721Z,7.65
2022-07-25T16:00:41.501Z,8.30
2022-07-25T16:03:09.761Z,6.63
2022-07-25T16:05:39.085Z,5.95
2022-07-25T16:08:09.791Z,6.32
2022-07-25T16:10:38.075Z,5.90
2022-07-25T16:13:05.941Z,6.28
2022-07-25T16:15:33.638Z,6.65
2022-07-25T16:18:03.011Z,7.45
2022-07-25T16:20:32.134Z,5.75
2022-07-25T16:23:00.331Z,5.88
2022-07-25T16:25:30.440Z,6.30
2022-07-25T16:27:58.833Z,7.10
2022-07-25T16:30:27.684Z,7.60
2022-07-25T16:32:55.735Z,8.18
2022-07-25T16:35:24.084Z,3.70
2022-07-25T16:37:52.025Z,6.32
2022-07-25T16:40:19.667Z,4.38
2022-07-25T16:42:50.466Z,5.43
2022-07-25T16:45:18.089Z,6.20
2022-07-25T16:47:45.753Z,6.55
2022-07-25T16:50:13.417Z,4.43
2022-07-25T16:52:41.018Z,6.55
2022-07-25T16:55:09.416Z,4.38
2022-07-25T16:57:38.837Z,9.18
2022-07-25T17:00:10.152Z,5.40
2022-07-25T17:02:37.975Z,4.95
2022-07-25T17:05:06.428Z,5.05
2022-07-25T17:07:34.559Z,4.50
2022-07-25T17:10:03.776Z,5.13
2022-07-25T17:12:31.450Z,4.88
2022-07-25T17:14:59.089Z,7.00
2022-07-25T17:17:28.545Z,5.93
2022-07-25T17:19:59.848Z,6.50
2022-07-25T17:22:27.866Z,6.43
2022-07-25T17:24:55.492Z,5.07
2022-07-25T17:27:23.177Z,4.55
2022-07-25T17:29:50.979Z,4.65
2022-07-25T17:32:18.686Z,7.45
2022-07-25T17:34:47.638Z,8.95
2022-07-25T17:37:15.283Z,7.03
2022-07-25T17:39:42.959Z,6.40
2022-07-25T17:42:10.570Z,7.28
2022-07-25T17:44:38.286Z,8.75
2022-07-25T17:47:07.055Z,9.15
2022-07-25T17:49:34.666Z,6.13
2022-07-25T17:52:03.660Z,6.20
2022-07-25T17:54:31.386Z,4.57
2022-07-25T17:56:59.359Z,4.82
2022-07-25T17:59:27.253Z,5.07
2022-07-25T18:01:54.868Z,4.95
2022-07-25T18:04:23.149Z,5.70
2022-07-25T18:06:50.938Z,6.78
2022-07-25T18:09:20.257Z,7.78
2022-07-25T18:11:48.368Z,3.38
2022-07-25T18:14:15.964Z,4.80
2022-07-25T18:16:45.296Z,4.03
2022-07-25T18:19:13.291Z,4.30
2022-07-25T18:21:40.984Z,5.22
2022-07-25T18:24:09.315Z,6.70
2022-07-25T18:26:39.597Z,6.45
2022-07-25T18:29:08.048Z,6.68
2022-07-25T18:31:36.092Z,5.93
2022-07-25T18:34:04.748Z,6.30
2022-07-25T18:36:32.782Z,3.22
2022-07-25T18:39:00.457Z,4.95
2022-07-25T18:41:29.960Z,8.43
2022-07-25T18:44:01.033Z,9.52
2022-07-25T18:46:29.713Z,3.75
2022-07-25T18:48:58.818Z,3.60
2022-07-25T18:51:26.528Z,4.68
2022-07-25T18:53:54.206Z,4.32
2022-07-25T18:56:21.934Z,3.53
2022-07-25T18:58:49.680Z,4.43
2022-07-25T19:01:18.711Z,4.40
2022-07-25T19:03:46.435Z,3.85
2022-07-25T19:06:14.677Z,2.58
2022-07-25T19:08:43.751Z,3.38
2022-07-25T19:11:11.422Z,3.75
2022-07-25T19:13:49.527Z,4.18
2022-07-25T19:16:20.516Z,6.88
2022-07-25T19:18:48.986Z,2.63
2022-07-25T19:21:16.733Z,5.90
2022-07-25T19:23:50.120Z,4.32
2022-07-25T19:26:18.598Z,4.10
2022-07-25T19:28:46.402Z,5.03
2022-07-25T19:31:15.052Z,3.65
2022-07-25T19:33:45.628Z,3.58
2022-07-25T19:36:13.542Z,3.67
2022-07-25T19:38:41.153Z,2.42
2022-07-25T19:41:09.469Z,4.32
2022-07-25T19:43:37.085Z,2.40
2022-07-25T19:46:04.865Z,3.50
2022-07-25T19:48:32.553Z,6.75
2022-07-25T19:51:01.673Z,2.08
2022-07-25T19:53:29.321Z,4.65
2022-07-25T19:55:56.932Z,3.83
2022-07-25T19:58:24.677Z,5.53
2022-07-25T20:00:52.363Z,5.53
2022-07-25T20:03:23.288Z,3.50
2022-07-25T20:05:51.933Z,4.15
2022-07-25T20:08:21.388Z,4.63
2022-07-25T20:10:49.248Z,4.15
2022-07-25T20:13:17.556Z,5.88
2022-07-25T20:15:45.352Z,3.55
2022-07-25T20:18:19.117Z,4.05
2022-07-25T20:20:47.549Z,3.72
2022-07-25T20:23:15.787Z,4.93
2022-07-25T20:25:44.922Z,2.25
2022-07-25T20:28:13.060Z,4.32
2022-07-25T20:30:40.938Z,4.22
2022-07-25T20:33:09.829Z,3.35
2022-07-25T20:35:38.213Z,3.33
2022-07-25T20:38:14.600Z,3.25
2022-07-25T20:40:49.489Z,3.95
2022-07-25T20:43:19.781Z,3.20
2022-07-25T20:45:47.918Z,4.18
2022-07-25T20:48:16.009Z,4.40
2022-07-25T20:50:44.374Z,4.22
2022-07-25T20:53:12.449Z,4.13
2022-07-25T20:55:40.321Z,3.67
2022-07-25T20:58:08.158Z,2.00
2022-07-25T21:00:37.300Z,3.08
2022-07-25T21:03:05.381Z,3.45
2022-07-25T21:05:37.513Z,3.00
2022-07-25T21:08:05.287Z,4.28
2022-07-25T21:10:33.210Z,4.32
2022-07-25T21:13:00.865Z,4.22
2022-07-25T21:15:28.592Z,3.17
2022-07-25T21:17:58.026Z,9.05
2022-07-25T21:20:25.665Z,5.53
2022-07-25T21:22:55.489Z,6.95
2022-07-25T21:25:23.453Z,5.00
2022-07-25T21:27:51.193Z,2.53
2022-07-25T21:30:18.852Z,3.95
2022-07-25T21:32:46.544Z,2.95
2022-07-25T21:35:16.754Z,4.63
2022-07-25T21:37:44.777Z,3.75
2022-07-25T21:40:12.581Z,2.67
2022-07-25T21:42:40.293Z,5.25
2022-07-25T21:45:08.924Z,2.50
2022-07-25T21:47:36.533Z,2.67
2022-07-25T21:50:24.984Z,4.35
2022-07-25T21:52:54.807Z,3.53
2022-07-25T21:55:22.785Z,3.10
2022-07-25T21:57:51.201Z,2.75
2022-07-25T22:00:20.231Z,3.30
2022-07-25T22:02:48.213Z,3.25
2022-07-25T22:05:18.820Z,4.65
2022-07-25T22:07:48.098Z,2.55
2022-07-25T22:10:19.312Z,2.40
2022-07-25T22:12:47.041Z,4.13
2022-07-25T22:15:17.872Z,3.00
2022-07-25T22:17:49.655Z,3.50
2022-07-25T22:20:18.610Z,3.33
2022-07-25T22:22:46.603Z,4.63
2022-07-25T22:25:14.369Z,4.25
2022-07-25T22:27:43.917Z,2.40
2022-07-25T22:30:18.441Z,2.70
2022-07-25T22:32:46.798Z,5.53
2022-07-25T22:35:14.414Z,3.92
2022-07-25T22:37:42.047Z,4.60
2022-07-25T22:40:10.551Z,2.53
2022-07-25T22:42:38.163Z,4.32
2022-07-25T22:45:08.306Z,4.10
2022-07-25T22:47:35.867Z,2.53
2022-07-25T22:50:03.896Z,4.90
2022-07-25T22:52:31.619Z,2.47
2022-07-25T22:54:59.350Z,1.77
2022-07-25T22:57:27.117Z,3.30
2022-07-25T22:59:54.809Z,1.45
2022-07-25T23:02:23.757Z,2.05
2022-07-25T23:04:51.349Z,4.72
2022-07-25T23:07:19.083Z,4.07
2022-07-25T23:09:46.713Z,1.17
2022-07-25T23:12:14.357Z,2.35
2022-07-25T23:14:42.018Z,2.33
2022-07-25T23:17:19.904Z,2.38
2022-07-25T23:19:51.040Z,3.42
2022-07-25T23:22:19.668Z,2.38
2022-07-25T23:24:47.341Z,3.00
2022-07-25T23:27:15.084Z,3.60
2022-07-25T23:29:43.197Z,3.78
2022-07-25T23:32:10.920Z,3.22
2022-07-25T23:34:38.534Z,2.38
2022-07-25T23:37:07.798Z,1.63
2022-07-25T23:39:35.463Z,2.03
2022-07-25T23:42:03.688Z,4.07
2022-07-25T23:44:31.575Z,3.55
2022-07-25T23:46:59.739Z,2.28
2022-07-25T23:49:29.286Z,1.00
2022-07-25T23:51:57.417Z,2.38
2022-07-25T23:54:26.433Z,1.52
2022-07-25T23:56:54.613Z,0.98
2022-07-25T23:59:22.216Z,2.28
